sensor_id;sensor_type;location;lat;lon;timestamp;pressure;altitude;pressure_sealevel;temperature;humidity
22743;BME280;11538;48.884;8.696;2023-04-16T00:02:26;98728.66;;;9.09;100.00
22743;BME280;11538;48.884;8.696;2023-04-16T00:04:53;98728.16;;;9.07;100.00
22743;BME280;11538;48.884;8.696;2023-04-16T00:07:20;98732.84;;;9.01;100.00
22743;BME280;11538;48.884;8.696;2023-04-16T00:09:47;98733.03;;;9.05;100.00
22743;BME280;11538;48.884;8.696;2023-04-16T00:12:14;98736.00;;;9.09;100.00
22743;BME280;11538;48.884;8.696;2023-04-16T00:14:41;98731.16;;;9.05;100.00
22743;BME280;11538;48.884;8.696;2023-04-16T00:17:09;98727.63;;;9.05;100.00
22743;BME280;11538;48.884;8.696;2023-04-16T00:19:38;98738.69;;;9.09;100.00
22743;BME280;11538;48.884;8.696;2023-04-16T00:22:04;98734.06;;;9.09;100.00
22743;BME280;11538;48.884;8.696;2023-04-16T00:24:31;98743.59;;;9.06;100.00
22743;BME280;11538;48.884;8.696;2023-04-16T00:26:58;98731.94;;;9.06;100.00
22743;BME280;11538;48.884;8.696;2023-04-16T00:29:25;98738.47;;;9.05;100.00
22743;BME280;11538;48.884;8.696;2023-04-16T00:31:55;98737.94;;;9.03;100.00
22743;BME280;11538;48.884;8.696;2023-04-16T00:34:22;98737.44;;;9.01;100.00
22743;BME280;11538;48.884;8.696;2023-04-16T00:36:49;98746.94;;;8.98;100.00
22743;BME280;11538;48.884;8.696;2023-04-16T00:39:15;98735.81;;;9.00;100.00
22743;BME280;11538;48.884;8.696;2023-04-16T00:41:43;98736.72;;;8.95;100.00
22743;BME280;11538;48.884;8.696;2023-04-16T00:44:10;98739.63;;;8.99;100.00
22743;BME280;11538;48.884;8.696;2023-04-16T00:46:37;98748.81;;;8.98;100.00
22743;BME280;11538;48.884;8.696;2023-04-16T00:49:04;98740.00;;;8.92;100.00
22743;BME280;11538;48.884;8.696;2023-04-16T00:51:31;98745.41;;;8.92;100.00
22743;BME280;11538;48.884;8.696;2023-04-16T00:53:58;98744.06;;;8.89;100.00
22743;BME280;11538;48.884;8.696;2023-04-16T00:56:26;98744.69;;;8.81;100.00
22743;BME280;11538;48.884;8.696;2023-04-16T00:58:54;98744.44;;;8.83;100.00
22743;BME280;11538;48.884;8.696;2023-04-16T01:01:22;98740.63;;;8.84;100.00
22743;BME280;11538;48.884;8.696;2023-04-16T01:03:49;98741.41;;;8.84;100.00
22743;BME280;11538;48.884;8.696;2023-04-16T01:06:17;98746.31;;;8.82;100.00
22743;BME280;11538;48.884;8.696;2023-04-16T01:08:46;98749.53;;;8.84;100.00
22743;BME280;11538;48.884;8.696;2023-04-16T01:11:14;98741.41;;;8.84;100.00
22743;BME280;11538;48.884;8.696;2023-04-16T01:13:42;98749.53;;;8.84;100.00
22743;BME280;11538;48.884;8.696;2023-04-16T01:16:11;98755.47;;;8.86;100.00
22743;BME280;11538;48.884;8.696;2023-04-16T01:18:38;98746.31;;;8.82;100.00
22743;BME280;11538;48.884;8.696;2023-04-16T01:21:06;98743.03;;;8.85;100.00
22743;BME280;11538;48.884;8.696;2023-04-16T01:23:33;98745.53;;;8.82;100.00
22743;BME280;11538;48.884;8.696;2023-04-16T01:26:00;98750.41;;;8.80;100.00
22743;BME280;11538;48.884;8.696;2023-04-16T01:28:26;98752.81;;;8.81;100.00
22743;BME280;11538;48.884;8.696;2023-04-16T01:30:53;98750.34;;;8.85;100.00
22743;BME280;11538;48.884;8.696;2023-04-16T01:33:21;98749.53;;;8.84;100.00
22743;BME280;11538;48.884;8.696;2023-04-16T01:35:47;98755.47;;;8.86;100.00
22743;BME280;11538;48.884;8.696;2023-04-16T01:38:14;98751.16;;;8.85;100.00
22743;BME280;11538;48.884;8.696;2023-04-16T01:40:42;98759.84;;;8.82;100.00
22743;BME280;11538;48.884;8.696;2023-04-16T01:43:09;98757.66;;;8.84;100.00
22743;BME280;11538;48.884;8.696;2023-04-16T01:45:36;98763.56;;;8.86;100.00
22743;BME280;11538;48.884;8.696;2023-04-16T01:48:03;98762.53;;;8.82;100.00
22743;BME280;11538;48.884;8.696;2023-04-16T01:50:30;98766.06;;;8.83;100.00
22743;BME280;11538;48.884;8.696;2023-04-16T01:52:57;98763.94;;;8.80;100.00
22743;BME280;11538;48.884;8.696;2023-04-16T01:55:24;98759.91;;;8.77;100.00
22743;BME280;11538;48.884;8.696;2023-04-16T01:57:52;98753.63;;;8.82;100.00
22743;BME280;11538;48.884;8.696;2023-04-16T02:00:19;98763.69;;;8.76;100.00
22743;BME280;11538;48.884;8.696;2023-04-16T02:02:46;98762.34;;;8.78;100.00
22743;BME280;11538;48.884;8.696;2023-04-16T02:05:16;98762.53;;;8.82;100.00
22743;BME280;11538;48.884;8.696;2023-04-16T02:07:43;98761.19;;;8.85;100.00
22743;BME280;11538;48.884;8.696;2023-04-16T02:10:10;98759.84;;;8.82;100.00
22743;BME280;11538;48.884;8.696;2023-04-16T02:12:37;98766.66;;;8.80;100.00
22743;BME280;11538;48.884;8.696;2023-04-16T02:15:04;98761.28;;;8.74;100.00
22743;BME280;11538;48.884;8.696;2023-04-16T02:17:32;98764.53;;;8.76;100.00
22743;BME280;11538;48.884;8.696;2023-04-16T02:19:58;98766.91;;;8.78;100.00
22743;BME280;11538;48.884;8.696;2023-04-16T02:22:25;98778.56;;;8.78;100.00
22743;BME280;11538;48.884;8.696;2023-04-16T02:24:52;98772.13;;;8.74;100.00
22743;BME280;11538;48.884;8.696;2023-04-16T02:27:19;98767.56;;;8.70;100.00
22743;BME280;11538;48.884;8.696;2023-04-16T02:29:46;98775.09;;;8.73;100.00
22743;BME280;11538;48.884;8.696;2023-04-16T02:32:13;98776.94;;;8.77;100.00
22743;BME280;11538;48.884;8.696;2023-04-16T02:34:40;98778.84;;;8.77;100.00
22743;BME280;11538;48.884;8.696;2023-04-16T02:37:08;98776.19;;;8.72;100.00
22743;BME280;11538;48.884;8.696;2023-04-16T02:39:34;98770.50;;;8.73;100.00
22743;BME280;11538;48.884;8.696;2023-04-16T02:42:02;98780.50;;;8.73;100.00
22743;BME280;11538;48.884;8.696;2023-04-16T02:44:29;98775.59;;;8.75;100.00
22743;BME280;11538;48.884;8.696;2023-04-16T02:46:55;98773.53;;;8.67;100.00
22743;BME280;11538;48.884;8.696;2023-04-16T02:49:22;98779.25;;;8.65;100.00
22743;BME280;11538;48.884;8.696;2023-04-16T02:51:49;98779.97;;;8.71;100.00
22743;BME280;11538;48.884;8.696;2023-04-16T02:54:16;98778.88;;;8.72;100.00
22743;BME280;11538;48.884;8.696;2023-04-16T02:56:43;98777.28;;;8.71;100.00
22743;BME280;11538;48.884;8.696;2023-04-16T02:59:09;98772.16;;;8.69;100.00
22743;BME280;11538;48.884;8.696;2023-04-16T03:01:37;98773.47;;;8.72;100.00
22743;BME280;11538;48.884;8.696;2023-04-16T03:04:04;98774.31;;;8.72;100.00
22743;BME280;11538;48.884;8.696;2023-04-16T03:06:31;98781.66;;;8.67;100.00
22743;BME280;11538;48.884;8.696;2023-04-16T03:08:58;98778.88;;;8.72;100.00
22743;BME280;11538;48.884;8.696;2023-04-16T03:11:25;98783.72;;;8.75;100.00
22743;BME280;11538;48.884;8.696;2023-04-16T03:13:51;98776.66;;;8.79;100.00
22743;BME280;11538;48.884;8.696;2023-04-16T03:16:19;98779.88;;;8.81;100.00
22743;BME280;11538;48.884;8.696;2023-04-16T03:18:46;98777.97;;;8.82;100.00
22743;BME280;11538;48.884;8.696;2023-04-16T03:21:13;98790.47;;;8.77;100.00
22743;BME280;11538;48.884;8.696;2023-04-16T03:23:39;98788.56;;;8.78;100.00
22743;BME280;11538;48.884;8.696;2023-04-16T03:26:06;98785.13;;;8.72;100.00
22743;BME280;11538;48.884;8.696;2023-04-16T03:28:33;98787.53;;;8.74;100.00
22743;BME280;11538;48.884;8.696;2023-04-16T03:31:00;98791.31;;;8.73;100.00
22743;BME280;11538;48.884;8.696;2023-04-16T03:33:27;98791.03;;;8.74;100.00
22743;BME280;11538;48.884;8.696;2023-04-16T03:35:55;98795.34;;;8.75;100.00
22743;BME280;11538;48.884;8.696;2023-04-16T03:38:24;98796.72;;;8.73;100.00
22743;BME280;11538;48.884;8.696;2023-04-16T03:40:53;98799.16;;;8.74;100.00
22743;BME280;11538;48.884;8.696;2023-04-16T03:43:20;98799.44;;;8.73;100.00
22743;BME280;11538;48.884;8.696;2023-04-16T03:45:47;98802.13;;;8.73;100.00
22743;BME280;11538;48.884;8.696;2023-04-16T03:48:14;98798.91;;;8.71;100.00
22743;BME280;11538;48.884;8.696;2023-04-16T03:50:45;98805.97;;;8.67;100.00
22743;BME280;11538;48.884;8.696;2023-04-16T03:53:13;98797.34;;;8.65;100.00
22743;BME280;11538;48.884;8.696;2023-04-16T03:55:41;98808.16;;;8.65;100.00
22743;BME280;11538;48.884;8.696;2023-04-16T03:58:08;98800.56;;;8.67;100.00
22743;BME280;11538;48.884;8.696;2023-04-16T04:00:35;98803.00;;;8.68;100.00
22743;BME280;11538;48.884;8.696;2023-04-16T04:03:02;98808.69;;;8.67;100.00
22743;BME280;11538;48.884;8.696;2023-04-16T04:05:29;98808.16;;;8.65;100.00
22743;BME280;11538;48.884;8.696;2023-04-16T04:07:56;98807.38;;;8.64;100.00
22743;BME280;11538;48.884;8.696;2023-04-16T04:10:23;98811.13;;;8.68;100.00
22743;BME280;11538;48.884;8.696;2023-04-16T04:12:50;98807.91;;;8.66;100.00
22743;BME280;11538;48.884;8.696;2023-04-16T04:15:17;98818.47;;;8.62;100.00
22743;BME280;11538;48.884;8.696;2023-04-16T04:17:43;98817.69;;;8.62;100.00
22743;BME280;11538;48.884;8.696;2023-04-16T04:20:11;98816.59;;;8.63;100.00
22743;BME280;11538;48.884;8.696;2023-04-16T04:22:38;98822.25;;;8.61;100.00
22743;BME280;11538;48.884;8.696;2023-04-16T04:25:05;98827.41;;;8.63;100.00
22743;BME280;11538;48.884;8.696;2023-04-16T04:27:32;98825.47;;;8.63;100.00
22743;BME280;11538;48.884;8.696;2023-04-16T04:29:59;98823.88;;;8.62;100.00
22743;BME280;11538;48.884;8.696;2023-04-16T04:32:26;98832.50;;;8.65;100.00
22743;BME280;11538;48.884;8.696;2023-04-16T04:34:53;98823.88;;;8.62;100.00
22743;BME280;11538;48.884;8.696;2023-04-16T04:37:20;98831.97;;;8.62;100.00
22743;BME280;11538;48.884;8.696;2023-04-16T04:39:46;98831.41;;;8.66;100.00
22743;BME280;11538;48.884;8.696;2023-04-16T04:42:16;98827.88;;;8.70;100.00
22743;BME280;11538;48.884;8.696;2023-04-16T04:44:47;98833.59;;;8.63;100.00
22743;BME280;11538;48.884;8.696;2023-04-16T04:47:14;98842.22;;;8.66;100.00
22743;BME280;11538;48.884;8.696;2023-04-16T04:49:41;98847.63;;;8.66;100.00
22743;BME280;11538;48.884;8.696;2023-04-16T04:52:07;98851.94;;;8.67;100.00
22743;BME280;11538;48.884;8.696;2023-04-16T04:54:34;98849.25;;;8.67;100.00
22743;BME280;11538;48.884;8.696;2023-04-16T04:57:01;98852.47;;;8.69;100.00
22743;BME280;11538;48.884;8.696;2023-04-16T04:59:28;98847.63;;;8.66;100.00
22743;BME280;11538;48.884;8.696;2023-04-16T05:01:55;98847.63;;;8.66;100.00
22743;BME280;11538;48.884;8.696;2023-04-16T05:04:22;98863.34;;;8.63;100.00
22743;BME280;11538;48.884;8.696;2023-04-16T05:06:48;98855.75;;;8.66;100.00
22743;BME280;11538;48.884;8.696;2023-04-16T05:09:15;98867.38;;;8.66;100.00
22743;BME280;11538;48.884;8.696;2023-04-16T05:11:43;98860.94;;;8.62;100.00
22743;BME280;11538;48.884;8.696;2023-04-16T05:14:09;98867.13;;;8.62;100.00
22743;BME280;11538;48.884;8.696;2023-04-16T05:16:37;98867.13;;;8.62;100.00
22743;BME280;11538;48.884;8.696;2023-04-16T05:19:04;98870.09;;;8.61;100.00
22743;BME280;11538;48.884;8.696;2023-04-16T05:21:31;98871.19;;;8.60;100.00
22743;BME280;11538;48.884;8.696;2023-04-16T05:23:58;98873.13;;;8.59;100.00
22743;BME280;11538;48.884;8.696;2023-04-16T05:26:24;98882.56;;;8.62;100.00
22743;BME280;11538;48.884;8.696;2023-04-16T05:28:51;98878.78;;;8.63;100.00
22743;BME280;11538;48.884;8.696;2023-04-16T05:31:18;98872.53;;;8.62;100.00
22743;BME280;11538;48.884;8.696;2023-04-16T05:33:45;98886.59;;;8.65;100.00
22743;BME280;11538;48.884;8.696;2023-04-16T05:36:12;98888.25;;;8.60;100.00
22743;BME280;11538;48.884;8.696;2023-04-16T05:38:39;98893.91;;;8.59;100.00
22743;BME280;11538;48.884;8.696;2023-04-16T05:41:06;98896.34;;;8.60;100.00
22743;BME280;11538;48.884;8.696;2023-04-16T05:43:32;98899.84;;;8.61;100.00
22743;BME280;11538;48.884;8.696;2023-04-16T05:45:59;98902.56;;;8.61;100.00
22743;BME280;11538;48.884;8.696;2023-04-16T05:48:26;98897.16;;;8.61;100.00
22743;BME280;11538;48.884;8.696;2023-04-16T05:50:53;98903.91;;;8.63;100.00
22743;BME280;11538;48.884;8.696;2023-04-16T05:53:20;98910.97;;;8.59;100.00
22743;BME280;11538;48.884;8.696;2023-04-16T05:55:47;98910.66;;;8.66;100.00
22743;BME280;11538;48.884;8.696;2023-04-16T05:58:14;98909.03;;;8.65;100.00
22743;BME280;11538;48.884;8.696;2023-04-16T06:00:41;98912.25;;;8.67;100.00
22743;BME280;11538;48.884;8.696;2023-04-16T06:03:08;98921.47;;;8.66;100.00
22743;BME280;11538;48.884;8.696;2023-04-16T06:05:35;98916.91;;;8.61;100.00
22743;BME280;11538;48.884;8.696;2023-04-16T06:08:02;98916.63;;;8.63;100.00
22743;BME280;11538;48.884;8.696;2023-04-16T06:10:29;98916.06;;;8.61;100.00
22743;BME280;11538;48.884;8.696;2023-04-16T06:12:56;98917.38;;;8.69;100.00
22743;BME280;11538;48.884;8.696;2023-04-16T06:15:23;98924.91;;;8.72;100.00
22743;BME280;11538;48.884;8.696;2023-04-16T06:17:49;98922.00;;;8.68;100.00
22743;BME280;11538;48.884;8.696;2023-04-16T06:20:16;98925.81;;;8.62;100.00
22743;BME280;11538;48.884;8.696;2023-04-16T06:22:43;98924.44;;;8.65;100.00
22743;BME280;11538;48.884;8.696;2023-04-16T06:25:10;98924.44;;;8.65;100.00
22743;BME280;11538;48.884;8.696;2023-04-16T06:27:37;98921.47;;;8.66;100.00
22743;BME280;11538;48.884;8.696;2023-04-16T06:30:05;98926.09;;;8.60;100.00
22743;BME280;11538;48.884;8.696;2023-04-16T06:32:36;98917.16;;;8.60;100.00
22743;BME280;11538;48.884;8.696;2023-04-16T06:35:04;98932.28;;;8.66;100.00
22743;BME280;11538;48.884;8.696;2023-04-16T06:37:31;98936.34;;;8.63;100.00
22743;BME280;11538;48.884;8.696;2023-04-16T06:39:58;98935.25;;;8.65;100.00
22743;BME280;11538;48.884;8.696;2023-04-16T06:42:24;98937.91;;;8.70;100.00
22743;BME280;11538;48.884;8.696;2023-04-16T06:44:52;98939.53;;;8.71;100.00
22743;BME280;11538;48.884;8.696;2023-04-16T06:47:18;98941.41;;;8.75;100.00
22743;BME280;11538;48.884;8.696;2023-04-16T06:49:45;98941.97;;;8.72;100.00
22743;BME280;11538;48.884;8.696;2023-04-16T06:52:12;98944.09;;;8.75;100.00
22743;BME280;11538;48.884;8.696;2023-04-16T06:54:39;98946.25;;;8.78;100.00
22743;BME280;11538;48.884;8.696;2023-04-16T06:57:06;98944.59;;;8.83;100.00
22743;BME280;11538;48.884;8.696;2023-04-16T06:59:33;98945.09;;;8.85;100.00
22743;BME280;11538;48.884;8.696;2023-04-16T07:02:00;98941.31;;;8.86;100.00
22743;BME280;11538;48.884;8.696;2023-04-16T07:04:27;98940.25;;;8.82;100.00
22743;BME280;11538;48.884;8.696;2023-04-16T07:06:54;98947.84;;;8.80;100.00
22743;BME280;11538;48.884;8.696;2023-04-16T07:09:21;98945.69;;;8.82;100.00
22743;BME280;11538;48.884;8.696;2023-04-16T07:11:48;98952.69;;;8.83;100.00
22743;BME280;11538;48.884;8.696;2023-04-16T07:14:15;98948.91;;;8.84;100.00
22743;BME280;11538;48.884;8.696;2023-04-16T07:16:41;98952.59;;;8.93;100.00
22743;BME280;11538;48.884;8.696;2023-04-16T07:19:09;98946.09;;;8.94;100.00
22743;BME280;11538;48.884;8.696;2023-04-16T07:21:36;98950.16;;;8.91;100.00
22743;BME280;11538;48.884;8.696;2023-04-16T07:24:03;98955.84;;;8.95;100.00
22743;BME280;11538;48.884;8.696;2023-04-16T07:26:30;98954.75;;;8.96;100.00
22743;BME280;11538;48.884;8.696;2023-04-16T07:28:58;98957.44;;;8.96;100.00
22743;BME280;11538;48.884;8.696;2023-04-16T07:31:26;98951.72;;;8.98;100.00
22743;BME280;11538;48.884;8.696;2023-04-16T07:33:53;98958.81;;;8.93;100.00
22743;BME280;11538;48.884;8.696;2023-04-16T07:36:20;98960.94;;;8.97;100.00
22743;BME280;11538;48.884;8.696;2023-04-16T07:38:47;98960.91;;;9.02;100.00
22743;BME280;11538;48.884;8.696;2023-04-16T07:41:13;98965.16;;;9.08;100.00
22743;BME280;11538;48.884;8.696;2023-04-16T07:43:40;98965.94;;;9.14;100.00
22743;BME280;11538;48.884;8.696;2023-04-16T07:46:07;98976.97;;;9.17;100.00
22743;BME280;11538;48.884;8.696;2023-04-16T07:48:34;98966.78;;;9.09;100.00
22743;BME280;11538;48.884;8.696;2023-04-16T07:51:01;98972.72;;;9.11;100.00
22743;BME280;11538;48.884;8.696;2023-04-16T07:53:28;98974.91;;;9.09;100.00
22743;BME280;11538;48.884;8.696;2023-04-16T07:55:55;98971.09;;;9.10;100.00
22743;BME280;11538;48.884;8.696;2023-04-16T07:58:21;98974.31;;;9.12;100.00
22743;BME280;11538;48.884;8.696;2023-04-16T08:00:48;98979.41;;;9.19;100.00
22743;BME280;11538;48.884;8.696;2023-04-16T08:03:16;98979.06;;;9.26;100.00
22743;BME280;11538;48.884;8.696;2023-04-16T08:05:44;98980.66;;;9.32;100.00
22743;BME280;11538;48.884;8.696;2023-04-16T08:08:11;98979.78;;;9.36;100.00
22743;BME280;11538;48.884;8.696;2023-04-16T08:10:38;98988.44;;;9.39;100.00
22743;BME280;11538;48.884;8.696;2023-04-16T08:13:05;98992.75;;;9.40;100.00
22743;BME280;11538;48.884;8.696;2023-04-16T08:15:32;98989.97;;;9.45;100.00
22743;BME280;11538;48.884;8.696;2023-04-16T08:17:59;98991.59;;;9.46;100.00
22743;BME280;11538;48.884;8.696;2023-04-16T08:20:26;98998.34;;;9.48;100.00
22743;BME280;11538;48.884;8.696;2023-04-16T08:22:53;98997.25;;;9.49;100.00
22743;BME280;11538;48.884;8.696;2023-04-16T08:25:20;99004.50;;;9.54;100.00
22743;BME280;11538;48.884;8.696;2023-04-16T08:27:49;99004.75;;;9.58;100.00
22743;BME280;11538;48.884;8.696;2023-04-16T08:30:16;99004.28;;;9.50;100.00
22743;BME280;11538;48.884;8.696;2023-04-16T08:32:43;99004.25;;;9.56;100.00
22743;BME280;11538;48.884;8.696;2023-04-16T08:35:10;99011.78;;;9.59;100.00
22743;BME280;11538;48.884;8.696;2023-04-16T08:37:40;99007.63;;;9.66;100.00
22743;BME280;11538;48.884;8.696;2023-04-16T08:40:08;99018.69;;;9.70;100.00
22743;BME280;11538;48.884;8.696;2023-04-16T08:42:57;99020.31;;;9.71;100.00
22743;BME280;11538;48.884;8.696;2023-04-16T08:45:26;99020.06;;;9.68;100.00
22743;BME280;11538;48.884;8.696;2023-04-16T08:47:53;99018.19;;;9.68;100.00
22743;BME280;11538;48.884;8.696;2023-04-16T08:50:25;99023.88;;;9.66;100.00
22743;BME280;11538;48.884;8.696;2023-04-16T08:53:04;99024.22;;;9.60;100.00
22743;BME280;11538;48.884;8.696;2023-04-16T08:55:47;99031.59;;;9.54;100.00
22743;BME280;11538;48.884;8.696;2023-04-16T08:58:18;99031.31;;;9.56;100.00
22743;BME280;11538;48.884;8.696;2023-04-16T09:00:50;99034.81;;;9.56;100.00
22743;BME280;11538;48.884;8.696;2023-04-16T09:03:18;99037.25;;;9.58;100.00
22743;BME280;11538;48.884;8.696;2023-04-16T09:05:49;99040.19;;;9.61;100.00
22743;BME280;11538;48.884;8.696;2023-04-16T09:08:16;99034.50;;;9.63;100.00
22743;BME280;11538;48.884;8.696;2023-04-16T09:10:43;99039.09;;;9.62;100.00
22743;BME280;11538;48.884;8.696;2023-04-16T09:13:11;99039.09;;;9.62;100.00
22743;BME280;11538;48.884;8.696;2023-04-16T09:15:40;99034.59;;;9.53;100.00
22743;BME280;11538;48.884;8.696;2023-04-16T09:18:07;99042.66;;;9.58;100.00
22743;BME280;11538;48.884;8.696;2023-04-16T09:20:35;99044.28;;;9.59;100.00
22743;BME280;11538;48.884;8.696;2023-04-16T09:23:02;99047.78;;;9.59;100.00
22743;BME280;11538;48.884;8.696;2023-04-16T09:25:33;99048.59;;;9.60;100.00
22743;BME280;11538;48.884;8.696;2023-04-16T09:28:00;99049.69;;;9.59;100.00
22743;BME280;11538;48.884;8.696;2023-04-16T09:30:27;99044.56;;;9.57;100.00
22743;BME280;11538;48.884;8.696;2023-04-16T09:33:16;99043.72;;;9.62;100.00
22743;BME280;11538;48.884;8.696;2023-04-16T09:35:51;99050.44;;;9.64;100.00
22743;BME280;11538;48.884;8.696;2023-04-16T09:38:19;99052.88;;;9.66;100.00
22743;BME280;11538;48.884;8.696;2023-04-16T09:40:46;99052.06;;;9.65;100.00
22743;BME280;11538;48.884;8.696;2023-04-16T09:43:18;99058.50;;;9.70;100.00
22743;BME280;11538;48.884;8.696;2023-04-16T09:45:52;99058.25;;;9.71;100.00
22743;BME280;11538;48.884;8.696;2023-04-16T09:48:31;99062.03;;;9.70;100.00
22743;BME280;11538;48.884;8.696;2023-04-16T09:51:00;99059.84;;;9.72;100.00
22743;BME280;11538;48.884;8.696;2023-04-16T09:53:31;99059.84;;;9.72;100.00
22743;BME280;11538;48.884;8.696;2023-04-16T09:56:01;99052.25;;;9.74;100.00
22743;BME280;11538;48.884;8.696;2023-04-16T09:58:28;99059.50;;;9.79;100.00
22743;BME280;11538;48.884;8.696;2023-04-16T10:01:09;99060.00;;;9.81;100.00
22743;BME280;11538;48.884;8.696;2023-04-16T10:03:39;99063.59;;;9.76;100.00
22743;BME280;11538;48.884;8.696;2023-04-16T10:06:17;99067.41;;;9.75;100.00
22743;BME280;11538;48.884;8.696;2023-04-16T10:08:53;99064.19;;;9.73;100.00
22743;BME280;11538;48.884;8.696;2023-04-16T10:11:23;99070.75;;;9.67;100.00
22743;BME280;11538;48.884;8.696;2023-04-16T10:13:50;99071.25;;;9.69;100.00
22743;BME280;11538;48.884;8.696;2023-04-16T10:16:17;99073.66;;;9.71;100.00
22743;BME280;11538;48.884;8.696;2023-04-16T10:18:45;99073.66;;;9.71;100.00
22743;BME280;11538;48.884;8.696;2023-04-16T10:21:13;99075.53;;;9.75;100.00
22743;BME280;11538;48.884;8.696;2023-04-16T10:23:42;99075.06;;;9.68;100.00
22743;BME280;11538;48.884;8.696;2023-04-16T10:26:09;99082.66;;;9.66;100.00
22743;BME280;11538;48.884;8.696;2023-04-16T10:28:37;99087.50;;;9.69;100.00
22743;BME280;11538;48.884;8.696;2023-04-16T10:31:07;99085.91;;;9.68;100.00
22743;BME280;11538;48.884;8.696;2023-04-16T10:33:39;99078.50;;;9.74;100.00
22743;BME280;11538;48.884;8.696;2023-04-16T10:36:14;99082.63;;;9.71;100.00
22743;BME280;11538;48.884;8.696;2023-04-16T10:38:51;99085.59;;;9.70;100.00
22743;BME280;11538;48.884;8.696;2023-04-16T10:41:19;99091.31;;;9.68;100.00
22743;BME280;11538;48.884;8.696;2023-04-16T10:43:50;99096.22;;;9.66;100.00
22743;BME280;11538;48.884;8.696;2023-04-16T10:46:34;99090.75;;;9.71;100.00
22743;BME280;11538;48.884;8.696;2023-04-16T10:49:13;99098.00;;;9.76;100.00
22743;BME280;11538;48.884;8.696;2023-04-16T10:51:41;99086.38;;;9.75;100.00
22743;BME280;11538;48.884;8.696;2023-04-16T10:56:36;99085.84;;;9.73;100.00
22743;BME280;11538;48.884;8.696;2023-04-16T10:59:09;99080.69;;;9.72;100.00
22743;BME280;11538;48.884;8.696;2023-04-16T11:01:41;99084.44;;;9.76;100.00
22743;BME280;11538;48.884;8.696;2023-04-16T11:07:15;99083.34;;;9.77;100.00
22743;BME280;11538;48.884;8.696;2023-04-16T11:09:55;99082.84;;;9.75;100.00
22743;BME280;11538;48.884;8.696;2023-04-16T11:20:17;99088.19;;;9.80;100.00
22743;BME280;11538;48.884;8.696;2023-04-16T11:22:48;99088.56;;;9.73;100.00
22743;BME280;11538;48.884;8.696;2023-04-16T11:25:26;99092.00;;;9.79;100.00
22743;BME280;11538;48.884;8.696;2023-04-16T11:27:56;99088.66;;;9.87;100.00
22743;BME280;11538;48.884;8.696;2023-04-16T11:30:36;99094.09;;;9.87;100.00
22743;BME280;11538;48.884;8.696;2023-04-16T11:33:04;99087.28;;;9.90;100.00
22743;BME280;11538;48.884;8.696;2023-04-16T11:35:33;99092.94;;;9.93;100.00
22743;BME280;11538;48.884;8.696;2023-04-16T11:38:00;99095.63;;;9.93;100.00
22743;BME280;11538;48.884;8.696;2023-04-16T11:40:30;99096.19;;;9.95;100.00
22743;BME280;11538;48.884;8.696;2023-04-16T11:43:15;99096.88;;;10.06;100.00
22743;BME280;11538;48.884;8.696;2023-04-16T11:46:04;99099.53;;;10.12;100.00
22743;BME280;11538;48.884;8.696;2023-04-16T11:48:53;99101.84;;;10.23;100.00
22743;BME280;11538;48.884;8.696;2023-04-16T11:51:21;99104.25;;;10.25;100.00
22743;BME280;11538;48.884;8.696;2023-04-16T11:53:53;99105.28;;;10.29;100.00
22743;BME280;11538;48.884;8.696;2023-04-16T11:56:28;99100.75;;;10.24;100.00
22743;BME280;11538;48.884;8.696;2023-04-16T11:59:22;99102.47;;;10.15;100.00
22743;BME280;11538;48.884;8.696;2023-04-16T12:01:53;99099.81;;;10.10;100.00
22743;BME280;11538;48.884;8.696;2023-04-16T12:04:26;99094.97;;;10.07;100.00
22743;BME280;11538;48.884;8.696;2023-04-16T12:07:12;99099.88;;;10.05;100.00
22743;BME280;11538;48.884;8.696;2023-04-16T12:09:41;99103.97;;;10.02;100.00
22743;BME280;11538;48.884;8.696;2023-04-16T12:12:30;99101.78;;;10.04;100.00
22743;BME280;11538;48.884;8.696;2023-04-16T12:14:58;99100.78;;;9.95;100.00
22743;BME280;11538;48.884;8.696;2023-04-16T12:17:25;99099.69;;;9.96;100.00
22743;BME280;11538;48.884;8.696;2023-04-16T12:19:58;99102.34;;;10.01;100.00
22743;BME280;11538;48.884;8.696;2023-04-16T12:22:33;99106.66;;;10.02;100.00
22743;BME280;11538;48.884;8.696;2023-04-16T12:25:06;99103.56;;;9.90;100.00
22743;BME280;11538;48.884;8.696;2023-04-16T12:30:09;99115.75;;;9.87;100.00
22743;BME280;11538;48.884;8.696;2023-04-16T12:32:36;99112.78;;;9.89;100.00
22743;BME280;11538;48.884;8.696;2023-04-16T12:35:03;99114.09;;;9.91;100.00
22743;BME280;11538;48.884;8.696;2023-04-16T12:37:32;99112.25;;;9.87;100.00
22743;BME280;11538;48.884;8.696;2023-04-16T12:39:59;99116.91;;;9.81;100.00
22743;BME280;11538;48.884;8.696;2023-04-16T12:42:26;99115.66;;;9.73;100.00
22743;BME280;11538;48.884;8.696;2023-04-16T12:44:53;99109.41;;;9.73;100.00
22743;BME280;11538;48.884;8.696;2023-04-16T12:47:22;99109.41;;;9.73;100.00
22743;BME280;11538;48.884;8.696;2023-04-16T12:49:49;99114.03;;;9.72;100.00
22743;BME280;11538;48.884;8.696;2023-04-16T12:52:16;99112.97;;;9.68;100.00
22743;BME280;11538;48.884;8.696;2023-04-16T12:54:43;99112.41;;;9.71;100.00
22743;BME280;11538;48.884;8.696;2023-04-16T12:57:10;99118.41;;;9.68;100.00
22743;BME280;11538;48.884;8.696;2023-04-16T12:59:37;99123.09;;;9.57;100.00
22743;BME280;11538;48.884;8.696;2023-04-16T13:02:04;99115.84;;;9.53;100.00
22743;BME280;11538;48.884;8.696;2023-04-16T13:04:33;99112.59;;;9.50;100.00
22743;BME280;11538;48.884;8.696;2023-04-16T13:07:00;99112.59;;;9.50;100.00
22743;BME280;11538;48.884;8.696;2023-04-16T13:09:27;99114.78;;;9.48;100.00
22743;BME280;11538;48.884;8.696;2023-04-16T13:11:54;99112.59;;;9.50;100.00
22743;BME280;11538;48.884;8.696;2023-04-16T13:14:21;99116.31;;;9.60;100.00
22743;BME280;11538;48.884;8.696;2023-04-16T13:16:48;99119.28;;;9.58;100.00
22743;BME280;11538;48.884;8.696;2023-04-16T13:19:16;99116.88;;;9.57;100.00
22743;BME280;11538;48.884;8.696;2023-04-16T13:21:44;99107.38;;;9.59;100.00
22743;BME280;11538;48.884;8.696;2023-04-16T13:24:11;99106.84;;;9.57;100.00